createdAt,value
2022-10-02T00:00:05.781Z,12.60
2022-10-02T00:02:49.013Z,12.80
2022-10-02T00:05:30.466Z,12.80
2022-10-02T00:08:07.370Z,12.80
2022-10-02T00:10:44.699Z,12.80
2022-10-02T00:13:23.912Z,12.80
2022-10-02T00:15:52.305Z,12.80
2022-10-02T00:18:29.014Z,12.70
2022-10-02T00:21:37.630Z,12.70
2022-10-02T00:24:08.012Z,12.70
2022-10-02T00:27:15.378Z,12.70
2022-10-02T00:29:48.726Z,12.60
2022-10-02T00:32:33.640Z,12.70
2022-10-02T00:35:22.410Z,12.70
2022-10-02T00:38:01.563Z,12.80
2022-10-02T00:40:51.482Z,12.70
2022-10-02T00:43:43.351Z,12.90
2022-10-02T00:46:32.398Z,12.80
2022-10-02T00:49:05.022Z,12.90
2022-10-02T00:52:08.551Z,12.90
2022-10-02T00:55:00.212Z,12.80
2022-10-02T00:57:26.961Z,12.80
2022-10-02T01:00:13.724Z,12.80
2022-10-02T01:03:06.835Z,12.70
2022-10-02T01:05:34.164Z,12.70
2022-10-02T01:08:01.733Z,12.60
2022-10-02T01:10:29.608Z,12.70
2022-10-02T01:12:57.935Z,12.60
2022-10-02T01:15:36.486Z,12.70
2022-10-02T01:18:04.560Z,12.70
2022-10-02T01:20:38.077Z,12.60
2022-10-02T01:23:25.269Z,12.60
2022-10-02T01:25:52.084Z,12.60
2022-10-02T01:28:19.221Z,12.50
2022-10-02T01:30:50.008Z,12.60
2022-10-02T01:33:17.086Z,12.50
2022-10-02T01:35:44.394Z,12.70
2022-10-02T01:38:17.162Z,12.80
2022-10-02T01:40:44.451Z,12.80
2022-10-02T01:43:19.181Z,12.70
2022-10-02T01:45:49.048Z,12.80
2022-10-02T01:48:53.605Z,12.70
2022-10-02T01:51:54.957Z,12.80
2022-10-02T01:54:45.242Z,12.80
2022-10-02T01:57:27.733Z,12.80
2022-10-02T02:00:08.716Z,12.80
2022-10-02T02:03:02.720Z,12.90
2022-10-02T02:05:44.997Z,12.90
2022-10-02T02:08:36.055Z,12.70
2022-10-02T02:11:19.245Z,12.90
2022-10-02T02:14:17.514Z,12.80
2022-10-02T02:16:52.534Z,12.80
2022-10-02T02:19:28.350Z,12.80
2022-10-02T02:22:03.948Z,12.90
2022-10-02T02:24:53.532Z,12.70
2022-10-02T02:27:24.777Z,12.80
2022-10-02T02:29:56.354Z,12.80
2022-10-02T02:32:27.133Z,12.90
2022-10-02T02:35:07.523Z,12.90
2022-10-02T02:37:36.946Z,12.90
2022-10-02T02:40:09.234Z,12.80
2022-10-02T02:42:46.305Z,12.80
2022-10-02T02:45:18.839Z,12.80
2022-10-02T02:47:50.620Z,12.90
2022-10-02T02:50:31.181Z,12.80
2022-10-02T02:53:03.662Z,12.90
2022-10-02T02:55:42.790Z,12.90
2022-10-02T02:58:35.601Z,12.90
2022-10-02T03:01:02.516Z,13.00
2022-10-02T03:03:29.422Z,13.00
2022-10-02T03:06:07.852Z,12.90
2022-10-02T03:08:37.487Z,12.80
2022-10-02T03:11:13.933Z,12.90
2022-10-02T03:14:05.512Z,12.80
2022-10-02T03:17:15.690Z,12.90
2022-10-02T03:20:07.030Z,12.90
2022-10-02T03:22:55.417Z,12.80
2022-10-02T03:25:37.632Z,12.90
2022-10-02T03:28:14.251Z,12.80
2022-10-02T03:30:42.326Z,12.90
2022-10-02T03:33:12.408Z,12.90
2022-10-02T03:35:40.344Z,12.90
2022-10-02T03:38:11.829Z,12.80
2022-10-02T03:40:38.690Z,12.90
2022-10-02T03:43:05.412Z,12.90
2022-10-02T03:45:50.487Z,12.80
2022-10-02T03:48:18.446Z,12.90
2022-10-02T03:50:45.807Z,12.90
2022-10-02T03:53:17.781Z,12.90
2022-10-02T03:55:58.983Z,12.90
2022-10-02T03:58:25.884Z,12.80
2022-10-02T04:01:04.451Z,12.80
2022-10-02T04:03:35.699Z,12.80
2022-10-02T04:06:04.867Z,12.80
2022-10-02T04:08:35.986Z,12.70
2022-10-02T04:11:23.812Z,12.70
2022-10-02T04:14:12.482Z,12.60
2022-10-02T04:17:02.183Z,12.70
2022-10-02T04:19:43.497Z,12.80
2022-10-02T04:22:40.988Z,12.60
2022-10-02T04:25:16.239Z,12.60
2022-10-02T04:27:56.880Z,12.60
2022-10-02T04:30:23.993Z,12.60
2022-10-02T04:32:50.882Z,12.60
2022-10-02T04:35:55.101Z,12.60
2022-10-02T04:38:42.856Z,12.70
2022-10-02T04:41:40.466Z,12.70
2022-10-02T04:44:13.490Z,12.60
2022-10-02T04:47:14.549Z,12.70
2022-10-02T04:50:01.128Z,12.70
2022-10-02T04:52:51.789Z,12.70
2022-10-02T04:55:24.381Z,12.70
2022-10-02T04:58:01.408Z,12.60
2022-10-02T05:00:36.423Z,12.60
2022-10-02T05:03:29.323Z,12.70
2022-10-02T05:06:23.794Z,12.70
2022-10-02T05:09:01.367Z,12.80
2022-10-02T05:11:57.513Z,12.80
2022-10-02T05:14:42.117Z,12.80
2022-10-02T05:17:36.944Z,12.80
2022-10-02T05:20:09.930Z,12.80
2022-10-02T05:22:51.768Z,12.80
2022-10-02T05:25:31.536Z,12.80
2022-10-02T05:28:04.573Z,12.80
2022-10-02T05:30:55.063Z,12.80
2022-10-02T05:33:58.645Z,12.70
2022-10-02T05:36:51.446Z,12.70
2022-10-02T05:39:32.984Z,12.70
2022-10-02T05:42:37.415Z,12.70
2022-10-02T05:45:22.346Z,12.70
2022-10-02T05:47:50.755Z,12.70
2022-10-02T05:50:26.301Z,12.70
2022-10-02T05:53:10.673Z,12.70
2022-10-02T05:56:16.137Z,12.60
2022-10-02T05:58:51.572Z,12.60
2022-10-02T06:01:22.310Z,12.50
2022-10-02T06:03:55.620Z,12.50
2022-10-02T06:06:30.723Z,12.50
2022-10-02T06:09:19.840Z,12.50
2022-10-02T06:11:49.962Z,12.60
2022-10-02T06:14:33.432Z,12.50
2022-10-02T06:17:14.316Z,12.50
2022-10-02T06:19:49.475Z,12.50
2022-10-02T06:22:24.639Z,12.40
2022-10-02T06:25:02.528Z,12.50
2022-10-02T06:27:47.634Z,12.40
2022-10-02T06:30:19.053Z,12.40
2022-10-02T06:32:58.426Z,12.40
2022-10-02T06:35:47.950Z,12.50
2022-10-02T06:38:23.297Z,12.50
2022-10-02T06:40:59.980Z,12.50
2022-10-02T06:43:58.264Z,12.60
2022-10-02T06:46:51.508Z,12.40
2022-10-02T06:49:30.873Z,12.40
2022-10-02T06:52:20.707Z,12.40
2022-10-02T06:55:12.895Z,12.40
2022-10-02T06:57:48.443Z,12.40
2022-10-02T07:00:19.449Z,12.50
2022-10-02T07:03:23.900Z,12.40
2022-10-02T07:06:15.840Z,12.50
2022-10-02T07:09:17.269Z,12.60
2022-10-02T07:12:26.467Z,12.50
2022-10-02T07:15:07.898Z,12.60
2022-10-02T07:18:07.816Z,12.60
2022-10-02T07:20:55.041Z,12.70
2022-10-02T07:23:42.234Z,12.70
2022-10-02T07:26:40.312Z,12.70
2022-10-02T07:29:24.907Z,12.70
2022-10-02T07:31:57.572Z,12.70
2022-10-02T07:35:03.522Z,12.70
2022-10-02T07:37:46.995Z,12.60
2022-10-02T07:40:28.969Z,12.70
2022-10-02T07:43:33.285Z,12.60
2022-10-02T07:46:09.834Z,12.70
2022-10-02T07:48:47.885Z,12.80
2022-10-02T07:51:50.179Z,12.80
2022-10-02T07:54:28.793Z,12.90
2022-10-02T07:57:04.148Z,13.00
2022-10-02T07:59:34.028Z,13.10
2022-10-02T08:02:06.483Z,13.00
2022-10-02T08:04:37.301Z,13.00
2022-10-02T08:07:06.362Z,13.10
2022-10-02T08:09:38.685Z,13.00
2022-10-02T08:12:20.420Z,13.10
2022-10-02T08:14:51.887Z,13.10
2022-10-02T08:17:39.604Z,13.10
2022-10-02T08:20:36.582Z,13.20
2022-10-02T08:23:06.758Z,13.20
2022-10-02T08:25:48.075Z,13.20
2022-10-02T08:28:41.950Z,13.30
2022-10-02T08:31:11.273Z,13.20
2022-10-02T08:33:38.955Z,13.20
2022-10-02T08:36:28.388Z,13.30
2022-10-02T08:39:29.193Z,13.40
2022-10-02T08:42:13.644Z,13.50
2022-10-02T08:45:07.909Z,13.50
2022-10-02T08:47:50.970Z,13.60
2022-10-02T08:50:39.355Z,13.60
2022-10-02T08:53:06.044Z,13.60
2022-10-02T08:56:03.096Z,13.40
2022-10-02T08:58:43.851Z,13.40
2022-10-02T09:01:38.890Z,13.50
2022-10-02T09:04:20.516Z,13.60
2022-10-02T09:07:11.938Z,13.40
2022-10-02T09:10:13.968Z,13.30
2022-10-02T09:13:07.935Z,13.30
2022-10-02T09:15:45.020Z,13.40
2022-10-02T09:18:43.705Z,13.40
2022-10-02T09:21:21.708Z,13.40
2022-10-02T09:24:06.750Z,13.30
2022-10-02T09:26:44.998Z,13.50
2022-10-02T09:29:29.201Z,13.40
2022-10-02T09:32:24.247Z,13.50
2022-10-02T09:35:16.560Z,13.40
2022-10-02T09:37:55.348Z,13.50
2022-10-02T09:40:40.706Z,13.40
2022-10-02T09:43:38.036Z,13.40
2022-10-02T09:46:22.740Z,13.40
2022-10-02T09:48:59.256Z,13.40
2022-10-02T09:51:26.180Z,13.30
2022-10-02T09:54:31.374Z,13.30
2022-10-02T09:57:17.630Z,13.50
2022-10-02T09:59:58.183Z,13.40
2022-10-02T10:02:35.794Z,13.40
2022-10-02T10:05:39.272Z,13.30
2022-10-02T10:08:33.074Z,13.50
2022-10-02T10:11:02.778Z,13.60
2022-10-02T10:13:55.907Z,13.60
2022-10-02T10:16:43.172Z,13.60
2022-10-02T10:19:29.043Z,13.50
2022-10-02T10:22:26.625Z,13.50
2022-10-02T10:25:12.317Z,13.60
2022-10-02T10:27:53.709Z,13.70
2022-10-02T10:30:44.387Z,13.70
2022-10-02T10:33:16.878Z,13.80
2022-10-02T10:35:47.290Z,13.70
2022-10-02T10:38:52.071Z,13.80
2022-10-02T10:41:57.847Z,13.80
2022-10-02T10:44:47.773Z,13.90
2022-10-02T10:47:35.677Z,13.90
2022-10-02T10:50:28.340Z,13.90
2022-10-02T10:53:22.379Z,13.90
2022-10-02T10:56:13.002Z,13.80
2022-10-02T10:59:01.308Z,13.80
2022-10-02T11:02:00.526Z,13.80
2022-10-02T11:04:49.239Z,13.90
2022-10-02T11:07:16.254Z,14.00
2022-10-02T11:10:28.689Z,14.00
2022-10-02T11:13:05.581Z,14.10
2022-10-02T11:15:59.157Z,14.00
2022-10-02T11:18:40.514Z,14.00
2022-10-02T11:21:41.214Z,14.00
2022-10-02T11:24:31.474Z,14.00
2022-10-02T11:27:29.514Z,14.10
2022-10-02T11:30:25.303Z,14.10
2022-10-02T11:33:03.862Z,14.20
2022-10-02T11:35:48.198Z,14.20
2022-10-02T11:38:32.446Z,14.20
2022-10-02T11:41:27.043Z,14.10
2022-10-02T11:44:16.806Z,14.10
2022-10-02T11:46:52.406Z,14.10
2022-10-02T11:49:40.119Z,14.00
2022-10-02T11:52:34.151Z,14.10
2022-10-02T11:55:28.477Z,14.00
2022-10-02T11:58:38.808Z,13.90
2022-10-02T12:01:14.535Z,14.10
2022-10-02T12:03:53.157Z,14.20
2022-10-02T12:07:00.349Z,14.40
2022-10-02T12:09:36.136Z,14.40
2022-10-02T12:12:27.999Z,14.20
2022-10-02T12:15:03.358Z,14.20
2022-10-02T12:17:33.123Z,14.20
2022-10-02T12:20:33.362Z,14.20
2022-10-02T12:24:10.722Z,14.40
2022-10-02T12:27:09.467Z,14.40
2022-10-02T12:29:48.394Z,14.40
2022-10-02T12:32:59.692Z,14.30
2022-10-02T12:35:32.982Z,14.40
2022-10-02T12:38:21.620Z,14.50
2022-10-02T12:41:24.085Z,14.40
2022-10-02T12:44:34.556Z,14.50
2022-10-02T12:47:12.595Z,14.50
2022-10-02T12:50:17.227Z,14.50
2022-10-02T12:53:03.182Z,14.50
2022-10-02T12:55:54.887Z,14.40
2022-10-02T12:58:26.640Z,14.30
2022-10-02T13:01:13.694Z,14.20
2022-10-02T13:03:49.341Z,14.20
2022-10-02T13:06:40.518Z,14.20
2022-10-02T13:09:29.872Z,14.20
2022-10-02T13:12:15.279Z,14.20
2022-10-02T13:15:01.992Z,14.20
2022-10-02T13:17:52.003Z,14.20
2022-10-02T13:20:37.900Z,14.20
2022-10-02T13:23:13.848Z,14.10
2022-10-02T13:26:05.023Z,14.10
2022-10-02T13:28:48.050Z,14.20
2022-10-02T13:31:42.391Z,14.10
2022-10-02T13:34:46.908Z,14.20
2022-10-02T13:37:17.171Z,14.40
2022-10-02T13:40:15.875Z,14.10
2022-10-02T13:42:50.922Z,14.30
2022-10-02T13:45:35.585Z,14.30
2022-10-02T13:48:19.289Z,14.30
2022-10-02T13:51:12.263Z,14.30
2022-10-02T13:53:56.712Z,14.20
2022-10-02T13:56:50.876Z,14.00
2022-10-02T13:59:55.188Z,13.90
2022-10-02T14:02:39.554Z,14.10
2022-10-02T14:05:31.197Z,14.20
2022-10-02T14:08:05.428Z,14.30
2022-10-02T14:10:42.010Z,14.40
2022-10-02T14:13:23.758Z,14.40
2022-10-02T14:16:03.944Z,14.40
2022-10-02T14:18:39.627Z,14.40
2022-10-02T14:21:20.683Z,14.50
2022-10-02T14:23:59.283Z,14.40
2022-10-02T14:26:52.714Z,14.50
2022-10-02T14:29:35.538Z,14.60
2022-10-02T14:32:24.789Z,14.50
2022-10-02T14:35:14.578Z,14.60
2022-10-02T14:37:55.273Z,14.50
2022-10-02T14:40:31.161Z,14.50
2022-10-02T14:43:09.320Z,14.40
2022-10-02T14:46:03.010Z,14.30
2022-10-02T14:48:58.190Z,14.30
2022-10-02T14:51:46.533Z,14.30
2022-10-02T14:54:44.008Z,14.20
2022-10-02T14:57:26.439Z,14.20
2022-10-02T15:00:22.010Z,14.20
2022-10-02T15:02:51.445Z,14.10
2022-10-02T15:05:39.463Z,14.10
2022-10-02T15:08:20.857Z,14.10
2022-10-02T15:10:49.449Z,14.20
2022-10-02T15:13:31.285Z,14.10
2022-10-02T15:16:29.872Z,14.10
2022-10-02T15:19:16.822Z,14.10
2022-10-02T15:22:03.624Z,14.10
2022-10-02T15:24:57.824Z,14.00
2022-10-02T15:27:26.491Z,14.00
2022-10-02T15:30:11.986Z,14.00
2022-10-02T15:32:44.879Z,14.00
2022-10-02T15:35:29.245Z,14.00
2022-10-02T15:38:39.744Z,14.00
2022-10-02T15:41:12.565Z,14.00
2022-10-02T15:43:57.961Z,13.90
2022-10-02T15:46:52.123Z,13.90
2022-10-02T15:49:36.717Z,13.90
2022-10-02T15:52:43.076Z,13.80
2022-10-02T15:55:46.840Z,13.80
2022-10-02T15:58:47.434Z,13.80
2022-10-02T16:01:26.580Z,13.80
2022-10-02T16:04:02.056Z,13.80
2022-10-02T16:07:11.941Z,13.80
2022-10-02T16:09:38.615Z,13.70
2022-10-02T16:12:25.160Z,13.60
2022-10-02T16:15:10.749Z,13.70
2022-10-02T16:17:56.132Z,13.60
2022-10-02T16:20:47.569Z,13.60
2022-10-02T16:23:32.488Z,13.60
2022-10-02T16:26:02.407Z,13.60
2022-10-02T16:28:34.172Z,13.70
2022-10-02T16:31:30.434Z,13.70
2022-10-02T16:34:15.777Z,13.70
2022-10-02T16:36:52.753Z,13.60
2022-10-02T16:39:33.712Z,13.60
2022-10-02T16:42:13.975Z,13.70
2022-10-02T16:45:02.237Z,13.60
2022-10-02T16:47:50.633Z,13.60
2022-10-02T16:50:29.451Z,13.70
2022-10-02T16:53:11.501Z,13.70
2022-10-02T16:55:47.281Z,13.60
2022-10-02T16:58:29.810Z,13.60
2022-10-02T17:01:04.030Z,13.50
2022-10-02T17:03:48.244Z,13.40
2022-10-02T17:06:46.976Z,13.50
2022-10-02T17:09:44.195Z,13.50
2022-10-02T17:12:30.173Z,13.30
2022-10-02T17:15:05.123Z,13.40
2022-10-02T17:17:43.560Z,13.50
2022-10-02T17:20:22.523Z,13.50
2022-10-02T17:22:59.528Z,13.50
2022-10-02T17:25:52.759Z,13.50
2022-10-02T17:28:27.494Z,13.40
2022-10-02T17:31:04.298Z,13.50
2022-10-02T17:33:51.706Z,13.50
2022-10-02T17:36:35.366Z,13.50
2022-10-02T17:39:17.513Z,13.50
2022-10-02T17:41:49.802Z,13.40
2022-10-02T17:44:24.541Z,13.40
2022-10-02T17:47:03.688Z,13.40
2022-10-02T17:50:20.674Z,13.30
2022-10-02T17:53:11.381Z,13.30
2022-10-02T17:56:25.953Z,13.30
2022-10-02T17:59:07.518Z,13.30
2022-10-02T18:01:48.241Z,13.30
2022-10-02T18:04:30.090Z,13.30
2022-10-02T18:07:15.476Z,13.30
2022-10-02T18:09:45.008Z,13.30
2022-10-02T18:12:27.060Z,13.30
2022-10-02T18:15:04.873Z,13.20
2022-10-02T18:17:53.007Z,13.10
2022-10-02T18:20:34.455Z,13.10
2022-10-02T18:23:36.860Z,13.00
2022-10-02T18:26:29.101Z,12.90
2022-10-02T18:29:12.678Z,12.90
2022-10-02T18:31:56.195Z,12.70
2022-10-02T18:34:53.424Z,12.60
2022-10-02T18:37:44.943Z,12.50
2022-10-02T18:40:22.261Z,12.40
2022-10-02T18:43:11.900Z,12.40
2022-10-02T18:45:56.149Z,12.40
2022-10-02T18:48:50.657Z,12.40
2022-10-02T18:51:31.860Z,12.40
2022-10-02T18:54:40.961Z,12.40
2022-10-02T18:57:07.674Z,12.40
2022-10-02T19:00:09.566Z,12.50
2022-10-02T19:03:01.396Z,12.40
2022-10-02T19:05:39.048Z,12.50
2022-10-02T19:08:10.016Z,12.50
2022-10-02T19:10:36.762Z,12.50
2022-10-02T19:13:24.240Z,12.50
2022-10-02T19:15:53.375Z,12.70
2022-10-02T19:18:26.125Z,12.70
2022-10-02T19:20:53.238Z,12.70
2022-10-02T19:23:28.966Z,12.70
2022-10-02T19:25:58.538Z,12.70
2022-10-02T19:28:29.208Z,12.70
2022-10-02T19:31:11.352Z,12.60
2022-10-02T19:33:44.978Z,12.60
2022-10-02T19:36:20.354Z,12.60
2022-10-02T19:39:13.119Z,12.70
2022-10-02T19:41:43.825Z,12.70
2022-10-02T19:44:31.052Z,12.60
2022-10-02T19:47:01.425Z,12.60
2022-10-02T19:49:32.245Z,12.60
2022-10-02T19:51:59.509Z,12.50
2022-10-02T19:54:37.358Z,12.50
2022-10-02T19:57:14.850Z,12.50
2022-10-02T19:59:52.909Z,12.40
2022-10-02T20:02:47.408Z,12.40
2022-10-02T20:05:24.011Z,12.40
2022-10-02T20:07:54.857Z,12.40
2022-10-02T20:10:47.331Z,12.30
2022-10-02T20:13:22.513Z,12.30
2022-10-02T20:16:10.338Z,12.30
2022-10-02T20:18:38.350Z,12.20
2022-10-02T20:21:18.282Z,12.10
2022-10-02T20:23:49.900Z,12.10
2022-10-02T20:26:22.305Z,12.10
2022-10-02T20:29:02.675Z,12.00
2022-10-02T20:31:59.495Z,12.10
2022-10-02T20:34:53.380Z,12.20
2022-10-02T20:37:26.268Z,12.10
2022-10-02T20:40:07.265Z,12.10
2022-10-02T20:42:49.369Z,12.10
2022-10-02T20:45:16.564Z,12.10
2022-10-02T20:48:12.827Z,12.10
2022-10-02T20:50:54.933Z,12.00
2022-10-02T20:53:35.994Z,12.00
2022-10-02T20:56:25.527Z,12.00
2022-10-02T20:58:55.404Z,12.00
2022-10-02T21:01:32.497Z,12.00
2022-10-02T21:04:37.018Z,11.90
2022-10-02T21:07:10.784Z,11.90
2022-10-02T21:10:02.216Z,11.80
2022-10-02T21:12:44.160Z,11.90
2022-10-02T21:15:36.153Z,11.80
2022-10-02T21:18:41.641Z,11.90
2022-10-02T21:21:23.176Z,11.90
2022-10-02T21:24:14.905Z,11.90
2022-10-02T21:27:10.633Z,11.90
2022-10-02T21:29:48.973Z,11.90
2022-10-02T21:32:32.972Z,11.80
2022-10-02T21:35:34.129Z,11.80
2022-10-02T21:38:38.697Z,11.80
2022-10-02T21:41:29.825Z,11.70
2022-10-02T21:44:18.617Z,11.60
2022-10-02T21:47:12.398Z,11.60
2022-10-02T21:50:15.283Z,11.40
2022-10-02T21:53:11.170Z,11.30
2022-10-02T21:55:59.922Z,11.20
2022-10-02T21:58:29.705Z,11.10
2022-10-02T22:01:08.277Z,11.10
2022-10-02T22:04:08.071Z,11.10
2022-10-02T22:07:03.299Z,11.20
2022-10-02T22:09:48.087Z,11.20
2022-10-02T22:12:29.053Z,11.30
2022-10-02T22:15:20.061Z,11.20
2022-10-02T22:18:01.182Z,11.20
2022-10-02T22:20:31.059Z,11.20
2022-10-02T22:23:16.922Z,11.30
2022-10-02T22:26:06.804Z,11.30
2022-10-02T22:28:48.610Z,11.40
2022-10-02T22:31:35.979Z,11.40
2022-10-02T22:34:39.516Z,11.20
2022-10-02T22:37:27.461Z,11.20
2022-10-02T22:40:13.366Z,11.10
2022-10-02T22:42:46.283Z,11.20
2022-10-02T22:45:21.715Z,11.30
2022-10-02T22:48:09.005Z,11.40
2022-10-02T22:50:58.164Z,11.40
2022-10-02T22:53:45.762Z,11.30
2022-10-02T22:56:38.339Z,11.30
2022-10-02T22:59:24.022Z,11.30
2022-10-02T23:01:59.524Z,11.40
2022-10-02T23:04:44.060Z,11.40
2022-10-02T23:07:21.584Z,11.40
2022-10-02T23:10:07.300Z,11.40
2022-10-02T23:12:43.683Z,11.50
2022-10-02T23:15:25.818Z,11.40
2022-10-02T23:18:03.001Z,11.50
2022-10-02T23:20:45.046Z,11.40
2022-10-02T23:23:32.486Z,11.40
2022-10-02T23:26:19.498Z,11.50
2022-10-02T23:29:20.253Z,11.30
2022-10-02T23:32:03.043Z,11.20
2022-10-02T23:34:51.610Z,11.20
2022-10-02T23:37:25.103Z,11.20
2022-10-02T23:40:13.742Z,11.20
2022-10-02T23:42:47.140Z,11.30
2022-10-02T23:45:34.472Z,11.30
2022-10-02T23:48:12.814Z,11.30
2022-10-02T23:50:42.549Z,11.30
2022-10-02T23:53:27.404Z,11.30
2022-10-02T23:56:12.635Z,11.40
2022-10-02T23:58:48.195Z,11.30
